Hauptseite
METAR-TAF:

METAR-TAF

Flughäfen :

Curaçao, Niederländische Antillen

Flughafen Curaçao

Breite: 12-12N, Länge: 068-58W, Höhe: 9 m

Beobachtung

Neuester Wetterbericht von vor 54 Minuten, um 12:00 UTC
Wind 15 kt aus Ost
Temperatur 29°C
Luftfeuchtigkeit 66%
Luftdruck 1013 hPa
Sichtweite 10 km oder mehr
Aufgelockert bewölkt in der Höhe von 1900 ft

METAR: TNCC 301200Z 10015KT 9999 SCT019 29/22 Q1013 NOSIG

Zeit: 08:54 (12:54 UTC)

Prognose

Neuester Wetterbericht von vor 3 Stunden und 15 Minuten, um 09:39 UTC
Gültige Prognose vom 30 um 12 UTC bis 01 um 12 UTC
Wind 16 kt aus Ost, Böen bis zu 28 kt
Sichtweite 10 km oder mehr
Aufgelockert bewölkt in der Höhe von 2000 ft
Zeitweise
vom 01 um 04 UTC bis 01 um 12 UTC
Durchbrochene Bewölkung in der Höhe von 1400 ft

TAF: TNCC 300939Z 3012/0112 09016G28KT 9999 SCT020 TEMPO 0104/0112 BKN014

Wetterbeobachtungen und Prognosen von mehr als 4000 Flughäfen (METAR und TAF Bericht).

Die verfügbaren Stationen werden durch gelbe und rote Markierungen auf der Karte dargestellt.

Führen Sie die Maus auf sie, um den Namen der Station zu sehen.

Darauf klicken, um die Beobachtung von Wetterbeobachtungen und Prognosen zu sehen.

Um die Karte zu ändern : klicken Sie auf den grünen Tasten mit einem schwarzen Kreuz Zum Vergrößern, auf den grünen Button mit einem Gedankenstrich zu verkleinern, oder auf die grünen Pfeile für benachbarte Karten.


METAR-TAF: